King Hakan — V7WI2 — position and weather

sailwx.info

Track history (hours):
 
Tides and Currents Weather Stations Pressure Air Temp Water Temp Dewpoint Dewpoint Depression Visibility Wind Speed Wind Dir Waves Ship Positions

King Hakan

Last reported at 2014-Aug-14 16:28 UTC. Time now 2014-Aug-23 17:24 UTC.
Position N 01°11' E 103°49'.
Warning: this ship's position is 9 days out of date.

Length 229 m; draft 14.9 m.

Type: Cargo ship. MMSI: 538090439.

Date/timePositionNaut miles runAvg speedWind from/ knotsBaromVisibWave heightAir tempDewpointWater temp
2014-Aug-14 16:28N 01°11' E 103°49'910.0
2014-Aug-14 15:33N 01°15' E 103°57'3 2.5
2014-Aug-14 14:33N 01°17' E 103°59'0 0.1
2014-Aug-14 13:33N 01°17' E 103°59'0 0.1
2014-Aug-14 12:33N 01°17' E 103°59'0 0.1
2014-Aug-14 11:33N 01°17' E 103°59'0 0.1
2014-Aug-14 10:33N 01°17' E 103°59'0 0.0
2014-Aug-14 09:27N 01°17' E 103°59'0 0.1
2014-Aug-14 08:33N 01°17' E 103°59'0 0.1
2014-Aug-14 07:30N 01°17' E 103°59'0 0.1
2014-Aug-14 06:27N 01°17' E 103°59'0 0.0
2014-Aug-14 01:33N 01°17' E 103°59'0 0.0
2014-Aug-14 00:30N 01°17' E 103°59'0 0.0
2014-Aug-13 23:33N 01°17' E 103°59'0 0.3
2014-Aug-13 22:33N 01°17' E 103°59'2 1.9
2014-Aug-13 21:33N 01°16' E 103°58'3 3.3
2014-Aug-13 20:33N 01°16' E 104°01'8 7.9
2014-Aug-13 19:33N 01°17' E 104°09'  
2014-Aug-07 21:18N 22°42' E 117°16'4410.6
2014-Aug-07 17:08N 23°19' E 117°42'1011.6
2014-Aug-07 16:16N 23°26' E 117°50'1710.0
2014-Aug-07 14:33N 23°35' E 118°06'10 9.5
2014-Aug-07 13:28N 23°45' E 118°11'1011.1
2014-Aug-07 12:33N 23°51' E 118°20'1110.4
2014-Aug-07 11:32N 23°57' E 118°29'1110.5
2014-Aug-07 10:28N 24°05' E 118°38'1010.5
2014-Aug-07 09:30N 24°11' E 118°46'1010.3
2014-Aug-07 08:33N 24°18' E 118°55'10 9.8
2014-Aug-07 07:34N 24°24' E 119°03'1010.0
2014-Aug-07 06:33N 24°30' E 119°12'14 9.9
2014-Aug-07 05:11N 24°38' E 119°23'45110.0
2014-Aug-05 08:04N 30°56' E 124°01'610.1
2014-Aug-05 07:28N 31°02' E 124°01'11011.0
2014-Aug-04 21:29N 32°52' E 123°59'1010.3
2014-Aug-04 20:33N 33°02' E 124°00'  
Track history (hours):
 
Tides and Currents Weather Stations Pressure Air Temp Water Temp Dewpoint Dewpoint Depression Visibility Wind Speed Wind Dir Waves Ship Positions

King Hakan

Last reported at 2014-Aug-14 16:28 UTC. Time now 2014-Aug-23 17:24 UTC.
Position N 01°11' E 103°49'.
Warning: this ship's position is 9 days out of date.

Length 229 m; draft 14.9 m.

Type: Cargo ship. MMSI: 538090439.

Date/timePositionNaut miles runAvg speedWind from/ knotsBaromVisibWave heightAir tempDewpointWater temp
2014-Aug-14 16:28N 01°11' E 103°49'910.0
2014-Aug-14 15:33N 01°15' E 103°57'3 2.5
2014-Aug-14 14:33N 01°17' E 103°59'0 0.1
2014-Aug-14 13:33N 01°17' E 103°59'0 0.1
2014-Aug-14 12:33N 01°17' E 103°59'0 0.1
2014-Aug-14 11:33N 01°17' E 103°59'0 0.1
2014-Aug-14 10:33N 01°17' E 103°59'0 0.0
2014-Aug-14 09:27N 01°17' E 103°59'0 0.1
2014-Aug-14 08:33N 01°17' E 103°59'0 0.1
2014-Aug-14 07:30N 01°17' E 103°59'0 0.1
2014-Aug-14 06:27N 01°17' E 103°59'0 0.0
2014-Aug-14 01:33N 01°17' E 103°59'0 0.0
2014-Aug-14 00:30N 01°17' E 103°59'0 0.0
2014-Aug-13 23:33N 01°17' E 103°59'0 0.3
2014-Aug-13 22:33N 01°17' E 103°59'2 1.9
2014-Aug-13 21:33N 01°16' E 103°58'3 3.3
2014-Aug-13 20:33N 01°16' E 104°01'8 7.9
2014-Aug-13 19:33N 01°17' E 104°09'  
2014-Aug-07 21:18N 22°42' E 117°16'4410.6
2014-Aug-07 17:08N 23°19' E 117°42'1011.6
2014-Aug-07 16:16N 23°26' E 117°50'1710.0
2014-Aug-07 14:33N 23°35' E 118°06'10 9.5
2014-Aug-07 13:28N 23°45' E 118°11'1011.1
2014-Aug-07 12:33N 23°51' E 118°20'1110.4
2014-Aug-07 11:32N 23°57' E 118°29'1110.5
2014-Aug-07 10:28N 24°05' E 118°38'1010.5
2014-Aug-07 09:30N 24°11' E 118°46'1010.3
2014-Aug-07 08:33N 24°18' E 118°55'10 9.8
2014-Aug-07 07:34N 24°24' E 119°03'1010.0
2014-Aug-07 06:33N 24°30' E 119°12'14 9.9
2014-Aug-07 05:11N 24°38' E 119°23'45110.0
2014-Aug-05 08:04N 30°56' E 124°01'610.1
2014-Aug-05 07:28N 31°02' E 124°01'11011.0
2014-Aug-04 21:29N 32°52' E 123°59'1010.3
2014-Aug-04 20:33N 33°02' E 124°00'  

Dump ship's entire track history